Time;durP1;ratioP1;P1;durP2;ratioP2;P2;SDS_P1;SDS_P2;PMS_P1;PMS_P2;Temp;Humidity;BMP_temperature;BMP_pressure;BME280_temperature;BME280_humidity;BME280_pressure;Samples;Min_cycle;Max_cycle;Signal;HPM_P1;HPM_P2
2023/03/18 00:01:58;;;;;;;7.55;3.58;;;10.40;99.90;;;;;;5053489;27;20206;-65
2023/03/18 00:04:26;;;;;;;6.72;3.40;;;10.40;99.90;;;;;;5099844;27;20244;-65
2023/03/18 00:06:52;;;;;;;8.57;3.83;;;10.40;99.90;;;;;;5085666;27;20209;-65
2023/03/18 00:09:20;;;;;;;4.07;3.22;;;10.40;99.90;;;;;;5090950;27;20203;-65
2023/03/18 00:11:46;;;;;;;4.25;3.10;;;10.50;99.90;;;;;;5088728;27;20195;-65
2023/03/18 00:14:14;;;;;;;5.85;3.20;;;10.50;99.90;;;;;;5081484;28;20203;-65
2023/03/18 00:16:41;;;;;;;4.68;3.17;;;10.60;99.90;;;;;;5060614;27;20199;-65
2023/03/18 00:19:08;;;;;;;4.60;3.13;;;10.60;99.90;;;;;;5085014;27;20487;-65
2023/03/18 00:21:36;;;;;;;6.20;3.60;;;10.60;99.90;;;;;;5086994;27;20199;-65
2023/03/18 00:24:03;;;;;;;6.97;3.35;;;10.60;99.90;;;;;;5090528;27;20826;-65
2023/03/18 00:26:30;;;;;;;5.10;3.22;;;10.70;99.90;;;;;;5089234;27;20191;-65
2023/03/18 00:28:58;;;;;;;5.78;3.70;;;10.70;99.90;;;;;;5088977;27;20199;-65
2023/03/18 00:31:26;;;;;;;6.30;3.10;;;10.70;99.90;;;;;;5106444;27;20195;-65
2023/03/18 00:33:53;;;;;;;3.75;2.75;;;10.70;99.90;;;;;;5062838;27;20202;-65
2023/03/18 00:36:24;;;;;;;3.60;2.80;;;10.70;99.90;;;;;;5102732;27;20196;-65
2023/03/18 00:38:56;;;;;;;7.95;3.58;;;10.70;99.90;;;;;;5088643;27;20201;-65
2023/03/18 00:41:24;;;;;;;4.55;3.10;;;10.70;99.90;;;;;;5086471;27;20801;-65
2023/03/18 00:43:52;;;;;;;5.22;3.17;;;10.70;99.90;;;;;;5088340;27;20425;-65
2023/03/18 00:46:22;;;;;;;4.43;3.00;;;10.60;99.90;;;;;;5104952;27;20194;-65
2023/03/18 00:48:51;;;;;;;5.22;3.30;;;10.70;99.90;;;;;;5055148;27;20215;-65
2023/03/18 00:51:19;;;;;;;7.25;3.20;;;10.70;99.90;;;;;;5097072;27;20726;-65
2023/03/18 00:53:48;;;;;;;11.07;3.15;;;10.70;99.90;;;;;;5089770;27;20207;-65
2023/03/18 00:56:18;;;;;;;4.28;2.72;;;10.70;99.90;;;;;;5091215;27;20694;-65
2023/03/18 00:58:45;;;;;;;5.88;2.95;;;10.60;99.90;;;;;;5091214;27;20202;-65
2023/03/18 01:01:13;;;;;;;4.38;3.13;;;10.70;99.90;;;;;;5085825;27;20208;-65
2023/03/18 01:03:41;;;;;;;3.72;2.90;;;10.70;99.90;;;;;;5067786;27;20218;-65
2023/03/18 01:06:10;;;;;;;7.25;3.35;;;10.60;99.90;;;;;;5080488;27;20230;-65
2023/03/18 01:08:38;;;;;;;5.25;2.95;;;10.70;99.90;;;;;;5081018;27;20414;-65
2023/03/18 01:11:06;;;;;;;3.65;2.78;;;10.70;99.90;;;;;;5101946;27;20202;-65
2023/03/18 01:13:35;;;;;;;4.88;2.63;;;10.70;99.90;;;;;;5079492;27;20899;-65
2023/03/18 01:16:02;;;;;;;4.82;3.58;;;10.60;99.90;;;;;;5097826;27;20195;-65
2023/03/18 01:18:29;;;;;;;4.03;2.92;;;10.70;99.90;;;;;;5070027;27;20203;-65
2023/03/18 01:20:56;;;;;;;5.18;3.45;;;10.70;99.90;;;;;;5092391;27;20194;-65
2023/03/18 01:23:23;;;;;;;4.53;2.97;;;10.60;99.90;;;;;;5096811;27;20223;-65
2023/03/18 01:25:50;;;;;;;5.80;3.30;;;10.60;99.90;;;;;;5097750;27;20202;-65
2023/03/18 01:28:17;;;;;;;4.78;2.88;;;10.60;99.90;;;;;;5090156;27;20199;-65
2023/03/18 01:30:46;;;;;;;6.90;3.00;;;10.60;99.90;;;;;;5088168;27;20825;-65
2023/03/18 01:33:14;;;;;;;3.85;2.45;;;10.60;99.90;;;;;;5101279;27;20212;-65
2023/03/18 01:35:41;;;;;;;3.20;2.70;;;10.60;99.90;;;;;;5058333;27;20939;-65
2023/03/18 01:38:08;;;;;;;8.90;3.08;;;10.60;99.90;;;;;;5101206;27;20191;-65
2023/03/18 01:40:39;;;;;;;5.53;3.70;;;10.60;99.90;;;;;;5088843;27;20783;-65
2023/03/18 01:43:19;;;;;;;4.47;2.67;;;10.50;99.90;;;;;;5090060;27;20780;-65
2023/03/18 01:45:51;;;;;;;5.75;3.13;;;10.60;99.90;;;;;;5087896;27;20787;-64
2023/03/18 01:48:20;;;;;;;9.57;2.85;;;10.50;99.90;;;;;;5097934;27;20728;-64
2023/03/18 01:50:51;;;;;;;8.93;2.92;;;10.60;99.90;;;;;;5070294;27;21038;-65
2023/03/18 01:53:20;;;;;;;5.53;3.30;;;10.50;99.90;;;;;;5086711;27;20199;-64
2023/03/18 01:55:48;;;;;;;5.47;3.08;;;10.50;99.90;;;;;;5090433;27;20230;-65
2023/03/18 01:58:23;;;;;;;10.50;3.20;;;10.50;99.90;;;;;;5098410;27;20191;-65
2023/03/18 02:00:59;;;;;;;4.53;3.22;;;10.60;99.90;;;;;;5082314;27;20451;-64
2023/03/18 02:03:27;;;;;;;4.57;3.17;;;10.50;99.90;;;;;;5100521;27;21503;-65
2023/03/18 02:05:55;;;;;;;6.85;2.83;;;10.50;99.90;;;;;;5064286;27;20208;-65
2023/03/18 02:08:21;;;;;;;3.95;3.22;;;10.50;99.90;;;;;;5087165;27;20580;-65
2023/03/18 02:10:49;;;;;;;10.25;3.83;;;10.40;99.90;;;;;;5085581;27;20192;-65
2023/03/18 02:13:17;;;;;;;6.65;3.10;;;10.40;99.90;;;;;;5100506;27;20191;-65
2023/03/18 02:15:48;;;;;;;6.65;3.65;;;10.40;99.90;;;;;;5082487;27;20199;-65
2023/03/18 02:18:20;;;;;;;8.52;3.20;;;10.40;99.90;;;;;;5094717;27;20199;-64
2023/03/18 02:21:14;;;;;;;5.57;3.40;;;10.40;99.90;;;;;;5065916;27;20676;-65
2023/03/18 02:23:49;;;;;;;4.00;3.08;;;10.30;99.90;;;;;;5085609;27;20238;-65
2023/03/18 02:26:22;;;;;;;5.70;3.20;;;10.30;99.90;;;;;;5092294;27;20706;-65
2023/03/18 02:28:55;;;;;;;5.43;2.75;;;10.30;99.90;;;;;;5101968;27;20561;-65
2023/03/18 02:31:22;;;;;;;7.53;3.85;;;10.30;99.90;;;;;;5086198;27;20195;-65
2023/03/18 02:33:49;;;;;;;9.38;3.35;;;10.30;99.90;;;;;;5099893;27;20204;-64
2023/03/18 02:36:21;;;;;;;5.45;3.42;;;10.30;99.90;;;;;;5070646;27;20664;-65
2023/03/18 02:38:48;;;;;;;9.00;3.22;;;10.30;99.90;;;;;;5085745;27;20214;-65
2023/03/18 02:41:17;;;;;;;8.48;3.45;;;10.30;99.90;;;;;;5092000;27;20199;-65
2023/03/18 02:43:44;;;;;;;5.40;2.90;;;10.30;99.90;;;;;;5096415;27;20245;-66
2023/03/18 02:46:24;;;;;;;7.32;3.20;;;10.30;99.90;;;;;;5089662;27;20540;-65
2023/03/18 02:48:52;;;;;;;10.90;3.55;;;10.30;99.90;;;;;;5099605;27;20751;-65
2023/03/18 02:51:20;;;;;;;5.57;3.45;;;10.40;99.90;;;;;;5097762;27;20255;-65
2023/03/18 02:53:47;;;;;;;3.90;3.30;;;10.30;99.90;;;;;;5059208;27;20294;-65
2023/03/18 02:56:15;;;;;;;4.85;3.17;;;10.30;99.90;;;;;;5098506;27;20198;-65
2023/03/18 02:58:41;;;;;;;5.15;3.35;;;10.30;99.90;;;;;;5090824;27;20213;-65
2023/03/18 03:01:08;;;;;;;5.63;3.38;;;10.50;99.90;;;;;;5096992;27;20802;-65
2023/03/18 03:03:37;;;;;;;9.75;4.00;;;10.30;99.90;;;;;;5073291;27;20226;-65
2023/03/18 03:06:04;;;;;;;3.88;3.28;;;10.30;99.90;;;;;;5095782;28;20494;-65
2023/03/18 03:08:31;;;;;;;4.68;3.30;;;10.30;99.90;;;;;;5066775;27;20205;-65
2023/03/18 03:10:58;;;;;;;4.60;3.50;;;10.30;99.90;;;;;;5078686;27;20696;-65
2023/03/18 03:13:25;;;;;;;7.43;3.42;;;10.30;99.90;;;;;;5088525;27;20214;-65
2023/03/18 03:15:52;;;;;;;7.05;3.58;;;10.30;99.90;;;;;;5092452;27;20194;-65
2023/03/18 03:18:20;;;;;;;6.90;3.40;;;10.30;99.90;;;;;;5086623;27;20191;-64
2023/03/18 03:20:51;;;;;;;5.10;3.72;;;10.30;99.90;;;;;;5093772;27;20211;-65
2023/03/18 03:23:18;;;;;;;6.07;3.50;;;10.30;99.90;;;;;;5070506;27;20211;-65
2023/03/18 03:25:45;;;;;;;6.20;3.10;;;10.30;99.90;;;;;;5084575;27;20603;-65
2023/03/18 03:28:13;;;;;;;4.45;3.50;;;10.30;99.90;;;;;;5098244;27;20427;-65
2023/03/18 03:30:41;;;;;;;7.05;3.60;;;10.30;99.90;;;;;;5088956;27;20507;-65
2023/03/18 03:33:08;;;;;;;6.15;3.95;;;10.30;99.90;;;;;;5080292;27;21502;-65
2023/03/18 03:35:35;;;;;;;8.13;3.60;;;10.30;99.90;;;;;;5089672;27;20527;-64
2023/03/18 03:38:04;;;;;;;6.60;3.22;;;10.30;99.90;;;;;;5068264;27;20411;-65
2023/03/18 03:40:31;;;;;;;6.88;3.30;;;10.30;99.90;;;;;;5091736;27;20199;-65
2023/03/18 03:42:57;;;;;;;9.48;4.18;;;10.40;99.90;;;;;;5092182;27;20550;-65
2023/03/18 03:45:24;;;;;;;8.05;3.72;;;10.30;99.90;;;;;;5094387;27;21378;-65
2023/03/18 03:47:51;;;;;;;6.82;3.95;;;10.30;99.90;;;;;;5089936;27;20204;-65
2023/03/18 03:50:18;;;;;;;9.05;3.83;;;10.30;99.90;;;;;;5081346;27;20210;-65
2023/03/18 03:52:45;;;;;;;7.90;3.67;;;10.30;99.90;;;;;;5097828;27;20561;-64
2023/03/18 03:55:17;;;;;;;7.32;4.15;;;10.30;99.90;;;;;;5057778;27;20404;-65
2023/03/18 03:57:44;;;;;;;5.93;3.70;;;10.30;99.90;;;;;;5096042;27;20187;-65
2023/03/18 04:00:13;;;;;;;8.65;3.70;;;10.30;99.90;;;;;;5091303;27;20654;-64
2023/03/18 04:02:42;;;;;;;11.25;4.20;;;10.30;99.90;;;;;;5099161;27;20616;-65
2023/03/18 04:05:10;;;;;;;5.47;3.65;;;10.40;99.90;;;;;;5077251;27;20810;-65
2023/03/18 04:07:37;;;;;;;6.90;3.92;;;10.40;99.90;;;;;;5099873;27;20192;-65
2023/03/18 04:10:04;;;;;;;6.38;3.67;;;10.40;99.90;;;;;;5071815;27;20408;-65
2023/03/18 04:12:33;;;;;;;7.40;3.90;;;10.40;99.90;;;;;;5103015;27;20191;-64
2023/03/18 04:15:00;;;;;;;9.80;4.28;;;10.40;99.90;;;;;;5096404;27;21026;-65
2023/03/18 04:17:27;;;;;;;8.60;4.43;;;10.40;99.90;;;;;;5091726;27;20650;-65
2023/03/18 04:19:54;;;;;;;6.82;4.25;;;10.40;99.90;;;;;;5088068;27;20194;-65
2023/03/18 04:22:21;;;;;;;6.88;4.60;;;10.40;99.90;;;;;;5092047;27;21004;-65
2023/03/18 04:24:48;;;;;;;10.25;4.25;;;10.40;99.90;;;;;;5096997;27;20692;-64
2023/03/18 04:27:15;;;;;;;7.70;4.70;;;10.40;99.90;;;;;;5067961;27;20347;-65
2023/03/18 04:29:43;;;;;;;7.78;4.97;;;10.40;99.90;;;;;;5101916;27;20256;-65
2023/03/18 04:32:10;;;;;;;7.88;4.60;;;10.40;99.90;;;;;;5091661;27;20191;-64
2023/03/18 04:34:38;;;;;;;6.57;4.88;;;10.40;99.90;;;;;;5103677;27;20672;-64
2023/03/18 04:37:04;;;;;;;6.70;4.60;;;10.40;99.90;;;;;;5078724;27;20639;-65
2023/03/18 04:39:31;;;;;;;8.38;4.97;;;10.40;99.90;;;;;;5100164;27;20195;-65
2023/03/18 04:41:58;;;;;;;8.18;5.07;;;10.30;99.90;;;;;;5072300;27;20215;-64
2023/03/18 04:44:25;;;;;;;9.75;4.70;;;10.30;99.90;;;;;;5101122;27;20234;-65
2023/03/18 04:46:53;;;;;;;7.68;4.82;;;10.30;99.90;;;;;;5095942;27;20347;-65
2023/03/18 04:49:20;;;;;;;11.48;5.57;;;10.30;99.90;;;;;;5100796;27;20198;-65
2023/03/18 04:51:47;;;;;;;14.02;5.20;;;10.30;99.90;;;;;;5084869;27;20408;-65
2023/03/18 04:54:14;;;;;;;9.88;4.85;;;10.30;99.90;;;;;;5090652;27;20214;-65
2023/03/18 04:56:42;;;;;;;8.48;5.10;;;10.30;99.90;;;;;;5070933;27;20588;-65
2023/03/18 04:59:09;;;;;;;7.35;5.15;;;10.30;99.90;;;;;;5103840;27;20195;-64
2023/03/18 05:01:36;;;;;;;9.05;5.18;;;10.30;99.90;;;;;;5096835;27;20195;-64
2023/03/18 05:04:05;;;;;;;10.57;5.25;;;10.30;99.90;;;;;;5092136;27;20196;-65
2023/03/18 05:06:32;;;;;;;8.93;5.03;;;10.30;99.90;;;;;;5083114;27;20202;-65
2023/03/18 05:09:00;;;;;;;8.75;5.35;;;10.30;99.90;;;;;;5087513;27;20198;-65
2023/03/18 05:11:28;;;;;;;9.98;5.50;;;10.20;99.90;;;;;;5098212;27;20195;-65
2023/03/18 05:13:55;;;;;;;8.20;5.40;;;10.30;99.90;;;;;;5069411;27;20237;-65
2023/03/18 05:16:23;;;;;;;6.47;5.03;;;10.30;99.90;;;;;;5096479;27;20206;-65
2023/03/18 05:18:50;;;;;;;9.23;5.43;;;10.20;99.90;;;;;;5087759;27;20207;-65
2023/03/18 05:21:19;;;;;;;11.85;6.00;;;10.20;99.90;;;;;;5098303;27;20291;-65
2023/03/18 05:23:46;;;;;;;11.70;6.50;;;10.20;99.90;;;;;;5078583;27;20554;-65
2023/03/18 05:26:12;;;;;;;10.07;5.97;;;10.20;99.90;;;;;;5097947;27;20276;-65
2023/03/18 05:28:39;;;;;;;7.95;5.80;;;10.20;99.90;;;;;;5065601;27;20214;-65
2023/03/18 05:31:06;;;;;;;7.65;5.40;;;10.20;99.90;;;;;;5097494;27;20718;-64
2023/03/18 05:33:33;;;;;;;11.63;5.00;;;10.20;99.90;;;;;;5092081;27;20213;-65
2023/03/18 05:36:00;;;;;;;10.13;5.13;;;10.10;99.90;;;;;;5095993;27;20975;-65
2023/03/18 05:38:29;;;;;;;9.45;5.25;;;10.10;99.90;;;;;;5088120;27;20309;-64
2023/03/18 05:40:56;;;;;;;9.10;5.13;;;10.10;99.90;;;;;;5088436;27;20206;-65
2023/03/18 05:43:23;;;;;;;9.45;4.57;;;10.10;99.90;;;;;;5078047;27;20578;-65
2023/03/18 05:45:50;;;;;;;9.90;5.78;;;10.10;99.90;;;;;;5052093;27;20897;-65
2023/03/18 05:48:17;;;;;;;8.75;5.65;;;10.10;99.90;;;;;;5080001;28;20592;-65
2023/03/18 05:50:44;;;;;;;12.23;6.95;;;10.00;99.90;;;;;;5067261;27;20195;-65
2023/03/18 05:53:11;;;;;;;9.65;6.22;;;10.00;99.90;;;;;;5067034;28;20204;-65
2023/03/18 05:55:40;;;;;;;11.43;5.90;;;10.00;99.90;;;;;;5051029;28;20284;-65
2023/03/18 05:58:07;;;;;;;11.93;6.13;;;10.00;99.90;;;;;;5076632;27;20191;-65
2023/03/18 06:00:36;;;;;;;9.60;5.82;;;10.00;99.90;;;;;;5040854;27;20226;-65
2023/03/18 06:03:03;;;;;;;10.13;5.72;;;10.00;99.90;;;;;;5070180;28;20959;-65
2023/03/18 06:05:30;;;;;;;8.02;5.18;;;10.00;99.90;;;;;;5070392;28;20227;-64
2023/03/18 06:07:57;;;;;;;8.40;5.68;;;10.10;99.90;;;;;;5075176;28;20296;-64
2023/03/18 06:10:25;;;;;;;10.95;5.93;;;10.10;99.90;;;;;;5064153;27;20309;-65
2023/03/18 06:12:54;;;;;;;10.13;5.50;;;10.10;99.90;;;;;;5071737;27;20542;-64
2023/03/18 06:15:21;;;;;;;10.70;5.63;;;10.10;99.90;;;;;;5070754;28;20191;-65
2023/03/18 06:17:48;;;;;;;10.95;6.40;;;10.10;99.90;;;;;;5054698;27;20752;-65
2023/03/18 06:20:17;;;;;;;7.53;5.35;;;10.10;99.90;;;;;;5074729;27;20196;-65
2023/03/18 06:22:48;;;;;;;8.48;5.63;;;10.10;99.90;;;;;;5072887;28;20227;-65
2023/03/18 06:25:16;;;;;;;12.13;5.82;;;10.10;99.90;;;;;;5074943;27;20432;-64
2023/03/18 06:27:42;;;;;;;11.00;5.78;;;10.10;99.90;;;;;;5074068;28;20207;-65
2023/03/18 06:30:12;;;;;;;9.82;5.95;;;10.10;99.90;;;;;;5072167;28;22536;-65
2023/03/18 06:32:40;;;;;;;9.68;5.43;;;10.10;99.90;;;;;;5037574;28;20208;-65
2023/03/18 06:35:07;;;;;;;16.95;6.47;;;10.20;99.90;;;;;;5081282;27;20291;-64
2023/03/18 06:37:34;;;;;;;10.77;5.60;;;10.20;99.90;;;;;;5069120;28;20431;-64
2023/03/18 06:40:01;;;;;;;11.60;5.80;;;10.20;99.90;;;;;;5079172;28;20199;-65
2023/03/18 06:42:28;;;;;;;10.60;5.75;;;10.10;99.90;;;;;;5055266;27;20867;-64
2023/03/18 06:44:55;;;;;;;8.32;5.57;;;10.10;99.90;;;;;;5091288;27;20225;-65
2023/03/18 06:47:23;;;;;;;8.52;5.85;;;10.20;99.90;;;;;;5064302;27;20839;-65
2023/03/18 06:49:50;;;;;;;12.32;5.78;;;10.20;99.90;;;;;;5103049;27;20210;-64
2023/03/18 06:52:17;;;;;;;11.00;6.28;;;10.20;99.90;;;;;;5103014;27;20194;-64
2023/03/18 06:54:45;;;;;;;13.02;6.00;;;10.20;99.90;;;;;;5082177;27;20634;-64
2023/03/18 06:57:12;;;;;;;8.57;5.88;;;10.20;99.90;;;;;;5059516;27;20243;-64
2023/03/18 06:59:39;;;;;;;9.70;5.95;;;10.20;99.90;;;;;;5067812;28;20518;-65
2023/03/18 07:02:07;;;;;;;9.45;5.60;;;10.20;99.90;;;;;;5058821;27;20325;-65
2023/03/18 07:04:35;;;;;;;8.77;5.55;;;10.20;99.90;;;;;;5075240;27;20377;-64
2023/03/18 07:07:03;;;;;;;10.77;5.78;;;10.30;99.90;;;;;;5086405;27;20192;-65
2023/03/18 07:09:32;;;;;;;9.77;5.93;;;10.30;99.90;;;;;;5094884;27;20439;-64
2023/03/18 07:11:59;;;;;;;9.43;6.18;;;10.30;99.90;;;;;;5082825;27;20199;-65
2023/03/18 07:14:28;;;;;;;10.68;6.32;;;10.30;99.90;;;;;;5073778;27;20203;-65
2023/03/18 07:16:55;;;;;;;7.85;5.38;;;10.30;99.90;;;;;;5088295;27;20218;-64
2023/03/18 07:19:21;;;;;;;12.88;6.18;;;10.30;99.90;;;;;;5055431;27;20322;-64
2023/03/18 07:21:50;;;;;;;10.50;6.50;;;10.30;99.90;;;;;;5085593;27;20313;-65
2023/03/18 07:24:17;;;;;;;11.68;6.28;;;10.20;99.90;;;;;;5085002;27;20226;-65
2023/03/18 07:26:44;;;;;;;11.18;6.30;;;10.20;99.90;;;;;;5089715;27;20313;-65
2023/03/18 07:29:11;;;;;;;9.50;6.30;;;10.20;99.90;;;;;;5084253;27;20220;-65
2023/03/18 07:31:38;;;;;;;10.88;6.60;;;10.30;99.90;;;;;;5092497;27;20211;-65
2023/03/18 07:34:04;;;;;;;11.85;6.60;;;10.30;99.90;;;;;;5068886;27;20222;-65
2023/03/18 07:36:32;;;;;;;7.70;5.80;;;10.20;99.90;;;;;;5090773;27;20331;-65
2023/03/18 07:39:00;;;;;;;11.00;6.15;;;10.20;99.90;;;;;;5086868;27;20429;-65
2023/03/18 07:41:27;;;;;;;9.65;6.97;;;10.20;99.90;;;;;;5098697;27;20314;-64
2023/03/18 07:43:54;;;;;;;9.30;6.88;;;10.20;99.90;;;;;;5061593;27;20246;-65
2023/03/18 07:46:21;;;;;;;13.05;6.78;;;10.20;99.90;;;;;;5084178;27;20222;-64
2023/03/18 07:48:48;;;;;;;8.48;6.13;;;10.20;99.90;;;;;;5039629;28;20207;-65
2023/03/18 07:51:15;;;;;;;13.63;7.88;;;10.20;99.90;;;;;;5065770;27;20316;-65
2023/03/18 07:53:43;;;;;;;12.02;7.88;;;10.20;99.90;;;;;;5075808;27;20219;-65
2023/03/18 07:56:11;;;;;;;10.18;6.95;;;10.30;99.90;;;;;;5075915;28;20222;-65
2023/03/18 07:58:38;;;;;;;11.13;7.00;;;10.30;99.90;;;;;;5065627;27;20216;-65
2023/03/18 08:01:06;;;;;;;10.55;7.57;;;10.30;99.90;;;;;;5069003;27;20576;-65
2023/03/18 08:03:33;;;;;;;13.00;7.63;;;10.30;99.90;;;;;;5037445;27;20790;-65
2023/03/18 08:06:01;;;;;;;13.60;7.82;;;10.30;99.90;;;;;;5068091;28;21158;-65
2023/03/18 08:08:27;;;;;;;13.05;7.55;;;10.30;99.90;;;;;;5037191;27;20204;-65
2023/03/18 08:10:57;;;;;;;10.80;7.20;;;10.30;99.90;;;;;;5074727;28;20427;-65
2023/03/18 08:13:25;;;;;;;12.35;7.70;;;10.30;99.90;;;;;;5066678;27;20204;-65
2023/03/18 08:15:53;;;;;;;16.08;7.95;;;10.40;99.90;;;;;;5065444;28;20515;-65
2023/03/18 08:18:19;;;;;;;16.35;8.82;;;10.40;99.90;;;;;;5072643;27;20203;-65
2023/03/18 08:20:47;;;;;;;13.40;8.30;;;10.40;99.90;;;;;;5032718;27;20211;-65
2023/03/18 08:23:13;;;;;;;13.13;8.18;;;10.50;99.90;;;;;;5081844;28;20222;-65
2023/03/18 08:25:40;;;;;;;12.15;9.32;;;10.50;99.90;;;;;;5060381;27;20228;-65
2023/03/18 08:28:07;;;;;;;13.43;7.78;;;10.60;99.90;;;;;;5067110;27;20743;-65
2023/03/18 08:30:38;;;;;;;11.77;7.68;;;10.60;99.90;;;;;;5071381;27;20196;-65
2023/03/18 08:33:04;;;;;;;11.93;8.20;;;10.70;99.90;;;;;;5061232;27;21030;-65
2023/03/18 08:35:32;;;;;;;12.05;8.27;;;10.70;99.90;;;;;;5051196;28;20744;-65
2023/03/18 08:38:00;;;;;;;15.43;8.18;;;10.70;99.90;;;;;;5071598;28;20235;-64
2023/03/18 08:40:27;;;;;;;13.60;8.25;;;10.80;99.90;;;;;;5053990;28;20210;-65
2023/03/18 08:42:54;;;;;;;16.58;8.10;;;10.80;99.90;;;;;;5073643;27;20227;-65
2023/03/18 08:45:21;;;;;;;9.93;8.00;;;10.80;99.90;;;;;;5052359;27;20227;-65
2023/03/18 08:47:50;;;;;;;12.98;8.60;;;10.80;99.90;;;;;;5075015;27;20272;-65
2023/03/18 08:50:17;;;;;;;14.32;8.70;;;10.80;99.90;;;;;;5047497;27;20201;-66
2023/03/18 08:52:43;;;;;;;11.80;8.57;;;10.90;99.90;;;;;;5075561;27;20829;-65
2023/03/18 08:55:11;;;;;;;11.77;8.40;;;10.90;99.90;;;;;;5078619;27;20199;-65
2023/03/18 08:57:37;;;;;;;13.10;8.90;;;10.90;99.90;;;;;;5076656;27;20794;-65
2023/03/18 09:00:05;;;;;;;15.35;9.05;;;11.00;99.90;;;;;;5068022;27;20199;-65
2023/03/18 09:02:32;;;;;;;16.17;8.77;;;11.10;99.90;;;;;;5045341;27;20204;-65
2023/03/18 09:05:00;;;;;;;16.38;9.55;;;11.10;99.90;;;;;;5030445;27;20741;-65
2023/03/18 09:07:27;;;;;;;12.15;8.48;;;11.10;99.90;;;;;;5038650;27;20227;-65
2023/03/18 09:09:54;;;;;;;11.95;8.90;;;11.20;99.90;;;;;;5060391;27;20219;-65
2023/03/18 09:12:22;;;;;;;12.98;8.40;;;11.30;99.90;;;;;;5082030;27;20203;-65
2023/03/18 09:14:48;;;;;;;9.45;8.05;;;11.40;99.90;;;;;;5071305;27;20200;-65
2023/03/18 09:17:15;;;;;;;12.55;8.98;;;11.50;99.90;;;;;;5068952;27;20238;-65
2023/03/18 09:19:42;;;;;;;10.82;8.63;;;11.60;99.90;;;;;;5067956;27;20203;-65
2023/03/18 09:22:10;;;;;;;14.40;9.68;;;11.60;99.90;;;;;;5034252;27;20813;-65
2023/03/18 09:24:38;;;;;;;12.38;8.18;;;11.60;99.90;;;;;;5082751;27;20210;-65
2023/03/18 09:27:05;;;;;;;14.02;8.35;;;11.70;99.90;;;;;;5067704;27;20228;-65
2023/03/18 09:29:32;;;;;;;10.75;7.32;;;11.70;99.90;;;;;;5080479;27;20351;-65
2023/03/18 09:31:59;;;;;;;11.18;7.55;;;11.80;99.90;;;;;;5060536;27;20963;-65
2023/03/18 09:34:26;;;;;;;9.32;6.95;;;11.90;99.90;;;;;;5069574;27;20696;-65
2023/03/18 09:36:53;;;;;;;10.45;7.32;;;11.90;99.90;;;;;;5052303;27;20630;-65
2023/03/18 09:39:21;;;;;;;12.35;7.30;;;11.90;99.90;;;;;;5048737;27;20208;-65
2023/03/18 09:42:02;;;;;;;11.52;7.53;;;12.00;99.90;;;;;;5074506;27;20211;-66
2023/03/18 09:44:32;;;;;;;9.07;7.82;;;12.10;99.90;;;;;;5078516;27;20241;-65
2023/03/18 09:47:14;;;;;;;8.98;7.25;;;12.10;99.90;;;;;;5093623;27;20226;-65
2023/03/18 09:49:58;;;;;;;12.73;7.82;;;12.20;99.90;;;;;;5080595;27;20283;-65
2023/03/18 09:52:30;;;;;;;13.35;7.72;;;12.30;99.90;;;;;;5090457;27;20672;-66
2023/03/18 09:55:03;;;;;;;11.80;7.03;;;12.50;99.90;;;;;;5086588;27;20961;-65
2023/03/18 09:57:34;;;;;;;10.90;7.75;;;12.50;99.90;;;;;;5084445;27;20199;-66
2023/03/18 10:00:07;;;;;;;11.02;7.80;;;12.50;99.90;;;;;;5085547;27;20214;-66
2023/03/18 10:02:39;;;;;;;11.45;8.10;;;12.60;99.90;;;;;;5091337;27;20247;-66
2023/03/18 10:05:14;;;;;;;12.00;8.00;;;12.60;99.90;;;;;;5061109;27;20209;-65
2023/03/18 10:07:43;;;;;;;12.43;7.82;;;12.60;99.90;;;;;;5042465;27;21613;-66
2023/03/18 10:10:19;;;;;;;14.40;8.02;;;12.70;99.90;;;;;;5073504;27;20209;-65
2023/03/18 10:12:51;;;;;;;11.63;8.82;;;12.70;99.90;;;;;;5065510;27;20884;-65
2023/03/18 10:15:21;;;;;;;13.77;9.20;;;12.70;99.90;;;;;;5081684;27;20661;-65
2023/03/18 10:17:54;;;;;;;14.00;9.30;;;12.70;99.90;;;;;;5080172;27;20214;-65
2023/03/18 10:20:30;;;;;;;15.90;9.85;;;12.70;99.90;;;;;;5087100;27;20689;-65
2023/03/18 10:23:03;;;;;;;15.52;11.30;;;12.70;99.90;;;;;;5077708;27;20198;-66
2023/03/18 10:25:36;;;;;;;17.15;12.25;;;12.90;99.90;;;;;;5049243;27;20618;-65
2023/03/18 10:28:29;;;;;;;18.50;12.45;;;13.00;99.90;;;;;;5098636;27;20240;-65
2023/03/18 10:31:07;;;;;;;18.95;12.70;;;13.10;99.90;;;;;;5072364;27;20575;-65
2023/03/18 10:33:43;;;;;;;20.67;13.43;;;13.20;99.90;;;;;;5073295;27;20398;-65
2023/03/18 10:36:14;;;;;;;20.50;12.77;;;13.20;99.90;;;;;;5088859;27;20270;-65
2023/03/18 10:38:43;;;;;;;17.27;13.00;;;13.20;99.90;;;;;;5055309;27;21198;-66
2023/03/18 10:41:19;;;;;;;24.25;13.45;;;13.20;99.90;;;;;;5080268;27;20404;-65
2023/03/18 10:43:48;;;;;;;17.23;12.13;;;13.30;99.90;;;;;;5076095;27;20915;-65
2023/03/18 10:46:18;;;;;;;20.88;12.57;;;13.20;99.90;;;;;;5080965;27;20218;-66
2023/03/18 10:48:48;;;;;;;19.23;12.63;;;13.20;99.90;;;;;;5085156;27;20374;-65
2023/03/18 10:51:20;;;;;;;18.30;12.45;;;13.20;99.90;;;;;;5084760;27;20503;-66
2023/03/18 10:53:55;;;;;;;17.85;12.13;;;13.20;99.90;;;;;;5085892;27;20415;-66
2023/03/18 10:56:23;;;;;;;17.85;13.00;;;13.20;99.90;;;;;;5092505;27;20205;-65
2023/03/18 10:58:51;;;;;;;17.58;12.70;;;13.30;99.90;;;;;;5088126;27;20199;-65
2023/03/18 11:01:21;;;;;;;16.65;12.73;;;13.40;99.90;;;;;;5085314;27;20201;-65
2023/03/18 11:03:53;;;;;;;21.30;12.65;;;13.40;99.90;;;;;;5099880;27;20199;-65
2023/03/18 11:06:24;;;;;;;15.90;12.43;;;13.50;99.90;;;;;;5072830;27;20228;-66
2023/03/18 11:09:01;;;;;;;17.92;12.73;;;13.70;99.90;;;;;;5088057;28;20191;-65
2023/03/18 11:11:33;;;;;;;19.33;12.48;;;13.70;99.90;;;;;;5057968;27;20194;-65
2023/03/18 11:14:02;;;;;;;20.92;12.98;;;13.80;99.90;;;;;;5096847;27;20705;-65
2023/03/18 11:16:39;;;;;;;15.75;11.98;;;13.80;99.90;;;;;;5080585;27;20735;-65
2023/03/18 11:19:26;;;;;;;19.10;12.98;;;13.80;99.90;;;;;;5099687;28;20252;-65
2023/03/18 11:22:05;;;;;;;20.95;12.25;;;13.70;99.90;;;;;;5072578;27;20773;-65
2023/03/18 11:24:38;;;;;;;17.38;11.32;;;13.70;99.90;;;;;;5093450;27;20193;-65
2023/03/18 11:27:24;;;;;;;22.00;12.95;;;13.70;99.90;;;;;;5042565;27;20615;-65
2023/03/18 11:29:56;;;;;;;20.00;12.70;;;13.70;99.90;;;;;;5077056;27;20613;-65
2023/03/18 11:32:28;;;;;;;17.05;12.68;;;13.70;99.90;;;;;;5085105;27;20198;-65
2023/03/18 11:34:57;;;;;;;21.20;14.43;;;13.60;99.90;;;;;;5094879;27;20229;-65
2023/03/18 11:37:29;;;;;;;17.67;13.55;;;13.60;99.90;;;;;;5073801;27;20277;-65
2023/03/18 11:40:11;;;;;;;22.88;14.25;;;13.60;99.90;;;;;;5087072;27;20600;-65
2023/03/18 11:42:40;;;;;;;20.52;14.65;;;13.70;99.90;;;;;;5040692;28;23560;-65
2023/03/18 11:45:28;;;;;;;22.77;13.88;;;13.70;99.90;;;;;;5093629;27;20206;-65
2023/03/18 11:47:56;;;;;;;26.27;15.18;;;13.70;99.90;;;;;;5080971;27;20424;-65
2023/03/18 11:50:26;;;;;;;18.70;12.90;;;13.70;99.90;;;;;;5094472;27;20384;-65
2023/03/18 11:53:00;;;;;;;23.23;13.40;;;13.70;99.90;;;;;;5070446;27;21143;-65
2023/03/18 11:55:37;;;;;;;21.02;14.50;;;13.80;99.90;;;;;;5090979;27;20838;-65
2023/03/18 11:58:31;;;;;;;18.65;13.25;;;13.90;99.90;;;;;;5074339;27;20214;-65
2023/03/18 12:01:06;;;;;;;26.27;14.65;;;14.00;99.90;;;;;;5087307;27;20194;-65
2023/03/18 12:04:04;;;;;;;24.63;15.07;;;14.10;99.90;;;;;;5082594;27;20206;-65
2023/03/18 12:06:37;;;;;;;21.42;14.57;;;14.10;99.90;;;;;;5092606;27;20226;-66
2023/03/18 12:09:10;;;;;;;24.48;15.43;;;14.20;99.90;;;;;;5078107;27;20198;-65
2023/03/18 12:11:56;;;;;;;20.80;14.57;;;14.20;99.90;;;;;;5075079;27;20582;-66
2023/03/18 12:14:31;;;;;;;25.38;15.32;;;14.10;99.90;;;;;;5099722;27;20545;-65
2023/03/18 12:17:11;;;;;;;20.92;14.73;;;14.10;99.90;;;;;;5091294;27;20729;-65
2023/03/18 12:19:57;;;;;;;22.02;15.25;;;14.10;99.90;;;;;;5086744;27;20214;-65
2023/03/18 12:22:49;;;;;;;16.58;13.57;;;14.10;99.90;;;;;;5086977;27;20246;-66
2023/03/18 12:25:29;;;;;;;18.83;14.35;;;14.10;99.90;;;;;;5084655;27;20297;-66
2023/03/18 12:28:03;;;;;;;18.20;12.70;;;14.10;99.90;;;;;;5078665;27;20727;-65
2023/03/18 12:31:10;;;;;;;17.00;13.10;;;14.10;99.90;;;;;;5097971;27;20206;-65
2023/03/18 12:33:50;;;;;;;16.83;13.68;;;14.10;99.90;;;;;;5083522;27;20735;-65
2023/03/18 12:36:23;;;;;;;19.55;13.60;;;14.10;99.90;;;;;;5097420;27;20314;-65
2023/03/18 12:39:04;;;;;;;16.88;12.98;;;14.20;99.90;;;;;;5080758;27;20242;-66
2023/03/18 12:41:39;;;;;;;18.80;12.85;;;14.30;99.90;;;;;;5092273;27;20878;-65
2023/03/18 12:44:19;;;;;;;16.70;12.63;;;14.30;99.90;;;;;;5063516;27;20658;-65
2023/03/18 12:46:52;;;;;;;18.95;12.05;;;14.30;99.90;;;;;;5095421;27;20798;-66
2023/03/18 12:49:24;;;;;;;18.02;11.60;;;14.30;99.90;;;;;;5079556;27;20368;-65
2023/03/18 12:51:56;;;;;;;14.57;10.70;;;14.40;99.90;;;;;;5099597;27;20191;-65
2023/03/18 12:54:27;;;;;;;14.45;10.43;;;14.40;99.90;;;;;;5089284;27;20299;-65